Time;durP1;ratioP1;P1;durP2;ratioP2;P2;SDS_P1;SDS_P2;PMS_P1;PMS_P2;Temp;Humidity;BMP_temperature;BMP_pressure;BME280_temperature;BME280_humidity;BME280_pressure;Samples;Min_cycle;Max_cycle;Signal;HPM_P1;HPM_P2
2024/02/11 00:06:04;;;;;;;23;15.9;;;;;;;8.43;84.58;96628.333333333;;;;
2024/02/11 00:16:02;;;;;;;23;15.9;;;;;;;8.42;84.79;96625;;;;
2024/02/11 00:27:02;;;;;;;23;15.9;;;;;;;8.49;84.83;96620;;;;
2024/02/11 00:37:03;;;;;;;29.5;15.3;;;;;;;8.29;85.6;96613.333333333;;;;
2024/02/11 00:48:03;;;;;;;29.5;15.3;;;;;;;8.26;85.81;96600;;;;
2024/02/11 00:59:02;;;;;;;22.6;14.3;;;;;;;8.29;85.67;96601.666666667;;;;
2024/02/11 01:09:01;;;;;;;22.6;14.3;;;;;;;8.3;86.35;96595;;;;
2024/02/11 01:19:04;;;;;;;22.6;14.3;;;;;;;8.21;86.34;96596.666666667;;;;
2024/02/11 01:30:02;;;;;;;23.3;15.3;;;;;;;8.36;86.19;96595;;;;
2024/02/11 01:40:02;;;;;;;23.3;15.3;;;;;;;8.22;86.85;96581.666666667;;;;
2024/02/11 01:51:02;;;;;;;23.3;15.3;;;;;;;8.27;86.53;96571.666666667;;;;
2024/02/11 02:01:02;;;;;;;26;15.9;;;;;;;8.21;86.89;96568.333333333;;;;
2024/02/11 02:11:03;;;;;;;26;15.9;;;;;;;8.18;86.72;96565;;;;
2024/02/11 02:22:01;;;;;;;26;15.9;;;;;;;8.26;86.73;96560;;;;
2024/02/11 02:32:02;;;;;;;20.6;13.4;;;;;;;8.33;86.71;96553.333333333;;;;
2024/02/11 02:42:02;;;;;;;20.6;13.4;;;;;;;8.32;86.82;96551.666666667;;;;
2024/02/11 02:53:02;;;;;;;20.6;13.4;;;;;;;8.24;87.39;96541.666666667;;;;
2024/02/11 03:03:06;;;;;;;19.9;12.6;;;;;;;8.41;86.9;96541.666666667;;;;
2024/02/11 03:13:02;;;;;;;19.9;12.6;;;;;;;8.51;86.62;96535;;;;
2024/02/11 03:24:04;;;;;;;19.9;12.6;;;;;;;8.4;86.76;96528.333333333;;;;
2024/02/11 03:35:03;;;;;;;22.9;14.7;;;;;;;8.39;87.05;96526.666666667;;;;
2024/02/11 03:46:02;;;;;;;22.9;14.7;;;;;;;8.25;87.76;96528.333333333;;;;
2024/02/11 03:56:02;;;;;;;22.9;14.7;;;;;;;8.19;88.12;96521.666666667;;;;
2024/02/11 04:07:02;;;;;;;22.1;14.5;;;;;;;8.12;88.33;96503.333333333;;;;
2024/02/11 04:17:02;;;;;;;22.1;14.5;;;;;;;8.13;88.98;96491.666666667;;;;
2024/02/11 04:27:02;;;;;;;22.1;14.5;;;;;;;8.26;88.17;96486.666666667;;;;
2024/02/11 04:38:07;;;;;;;26.9;17.1;;;;;;;8.22;88.61;96475;;;;
2024/02/11 04:49:02;;;;;;;26.9;17.1;;;;;;;8.22;88.36;96458.333333333;;;;
2024/02/11 04:59:04;;;;;;;24.5;16.1;;;;;;;8.16;88.19;96448.333333333;;;;
2024/02/11 05:10:02;;;;;;;24.5;16.1;;;;;;;8.24;88.05;96436.666666667;;;;
2024/02/11 05:20:12;;;;;;;24.5;16.1;;;;;;;8.32;87.68;96431.666666667;;;;
2024/02/11 05:30:02;;;;;;;22.7;14.9;;;;;;;8.25;87.45;96420;;;;
2024/02/11 05:41:04;;;;;;;22.7;14.9;;;;;;;8.24;87.6;96420;;;;
2024/02/11 05:52:03;;;;;;;22.7;14.9;;;;;;;8.22;87.54;96426.666666667;;;;
2024/02/11 06:03:02;;;;;;;25.7;15.4;;;;;;;8.13;87.66;96426.666666667;;;;
2024/02/11 06:14:04;;;;;;;25.7;15.4;;;;;;;8.13;87.87;96420;;;;
2024/02/11 06:24:05;;;;;;;25.7;15.4;;;;;;;8.11;87.46;96438.333333333;;;;
2024/02/11 06:35:02;;;;;;;22.7;15.2;;;;;;;8.08;87.78;96441.666666667;;;;
2024/02/11 06:45:06;;;;;;;22.7;15.2;;;;;;;8.1;88.3;96441.666666667;;;;
2024/02/11 06:55:02;;;;;;;22.7;15.2;;;;;;;8.23;88.1;96450;;;;
2024/02/11 07:05:02;;;;;;;21.6;14.9;;;;;;;8.11;88.86;96448.333333333;;;;
2024/02/11 07:15:04;;;;;;;21.6;14.9;;;;;;;8.27;89.33;96440;;;;
2024/02/11 07:26:02;;;;;;;21.6;14.9;;;;;;;8.35;89.24;96443.333333333;;;;
2024/02/11 07:36:02;;;;;;;20.2;12.4;;;;;;;8.61;88.91;96448.333333333;;;;
2024/02/11 07:47:05;;;;;;;20.2;12.4;;;;;;;8.67;88.96;96450;;;;
2024/02/11 07:58:02;;;;;;;20.1;14;;;;;;;9.02;88.41;96446.666666667;;;;
2024/02/11 08:09:02;;;;;;;20.1;14;;;;;;;9.04;87.49;96451.666666667;;;;
2024/02/11 08:20:02;;;;;;;20.1;14;;;;;;;9.25;87.88;96443.333333333;;;;
2024/02/11 08:30:04;;;;;;;15.4;11.4;;;;;;;9.33;87.13;96431.666666667;;;;
2024/02/11 08:40:03;;;;;;;15.4;11.4;;;;;;;9.39;87.27;96425;;;;
2024/02/11 08:50:04;;;;;;;15.4;11.4;;;;;;;9.5;86.47;96433.333333333;;;;
2024/02/11 09:01:02;;;;;;;18.2;12.9;;;;;;;9.37;86.88;96443.333333333;;;;
2024/02/11 09:11:06;;;;;;;18.2;12.9;;;;;;;9.22;87.72;96435;;;;
2024/02/11 09:21:02;;;;;;;18.2;12.9;;;;;;;9.35;87.83;96433.333333333;;;;
2024/02/11 09:32:03;;;;;;;23.8;17.7;;;;;;;9.44;87.41;96431.666666667;;;;
2024/02/11 09:42:02;;;;;;;23.8;17.7;;;;;;;9.53;87.63;96425;;;;
2024/02/11 09:53:03;;;;;;;23.8;17.7;;;;;;;10.09;87.19;96425;;;;
2024/02/11 10:04:04;;;;;;;18;12.6;;;;;;;10.58;85.72;96426.666666667;;;;
2024/02/11 10:15:03;;;;;;;18;12.6;;;;;;;11.03;84.66;96425;;;;
2024/02/11 10:26:02;;;;;;;18;12.6;;;;;;;11.24;83.94;96421.666666667;;;;
2024/02/11 10:36:03;;;;;;;15.7;13.1;;;;;;;11.62;83.89;96413.333333333;;;;
2024/02/11 10:47:04;;;;;;;15.7;13.1;;;;;;;11.9;83.02;96388.333333333;;;;
2024/02/11 10:57:07;;;;;;;15.7;13.1;;;;;;;11.83;81.55;96371.666666667;;;;
2024/02/11 11:08:02;;;;;;;17.7;14.6;;;;;;;12.18;82.38;96383.333333333;;;;
2024/02/11 11:19:02;;;;;;;17.7;14.6;;;;;;;12.27;82.63;96378.333333333;;;;
2024/02/11 11:30:02;;;;;;;18.6;13.2;;;;;;;12.39;82.75;96366.666666667;;;;
2024/02/11 11:41:03;;;;;;;18.6;13.2;;;;;;;12.12;82.97;96356.666666667;;;;
2024/02/11 11:51:02;;;;;;;18.6;13.2;;;;;;;12.24;82.21;96356.666666667;;;;
2024/02/11 12:02:02;;;;;;;19.4;14.1;;;;;;;12.16;81.27;96358.333333333;;;;
2024/02/11 12:12:03;;;;;;;19.4;14.1;;;;;;;12.23;81.66;96353.333333333;;;;
2024/02/11 12:23:02;;;;;;;19.4;14.1;;;;;;;12.18;82.61;96345;;;;
2024/02/11 12:34:05;;;;;;;10.4;7.9;;;;;;;12.06;82.39;96336.666666667;;;;
2024/02/11 12:45:02;;;;;;;10.4;7.9;;;;;;;12.2;82.19;96331.666666667;;;;
2024/02/11 12:56:05;;;;;;;10.4;7.9;;;;;;;12.08;82.95;96330;;;;
2024/02/11 13:06:02;;;;;;;9.2;7.2;;;;;;;12.08;83.56;96331.666666667;;;;
2024/02/11 13:17:02;;;;;;;9.2;7.2;;;;;;;12.07;83.26;96331.666666667;;;;
2024/02/11 13:28:02;;;;;;;13.2;10.3;;;;;;;12.11;83.4;96330;;;;
2024/02/11 13:39:02;;;;;;;13.2;10.3;;;;;;;11.86;84.08;96335;;;;
2024/02/11 13:49:02;;;;;;;13.2;10.3;;;;;;;11.61;85.16;96333.333333333;;;;
2024/02/11 13:59:02;;;;;;;21.8;14.7;;;;;;;11.46;85.96;96340;;;;
2024/02/11 14:10:02;;;;;;;21.8;14.7;;;;;;;11.27;86.61;96345;;;;
2024/02/11 14:21:02;;;;;;;21.8;14.7;;;;;;;11.21;87.2;96346.666666667;;;;
2024/02/11 14:31:04;;;;;;;11.1;8.5;;;;;;;11.25;86.58;96346.666666667;;;;
2024/02/11 14:42:05;;;;;;;11.1;8.5;;;;;;;11.24;86.73;96356.666666667;;;;
2024/02/11 14:53:02;;;;;;;11.1;8.5;;;;;;;11.31;86.2;96361.666666667;;;;
2024/02/11 15:04:02;;;;;;;15;9.8;;;;;;;11.19;86.03;96370;;;;
2024/02/11 15:14:02;;;;;;;15;9.8;;;;;;;11.06;86.43;96371.666666667;;;;
2024/02/11 15:24:02;;;;;;;15;9.8;;;;;;;10.94;86.65;96378.333333333;;;;
2024/02/11 15:35:04;;;;;;;19.9;13.5;;;;;;;10.79;86.4;96385;;;;
2024/02/11 15:45:05;;;;;;;19.9;13.5;;;;;;;10.74;86.7;96393.333333333;;;;
2024/02/11 15:56:04;;;;;;;19.9;13.5;;;;;;;10.67;86.9;96401.666666667;;;;
2024/02/11 16:07:03;;;;;;;15.7;12.7;;;;;;;10.54;86.99;96411.666666667;;;;
2024/02/11 16:17:03;;;;;;;15.7;12.7;;;;;;;10.32;87.81;96425;;;;
2024/02/11 16:28:05;;;;;;;23.4;16.3;;;;;;;10.34;87.73;96436.666666667;;;;
2024/02/11 16:39:04;;;;;;;23.4;16.3;;;;;;;10.24;87.35;96440;;;;
2024/02/11 16:50:02;;;;;;;23.4;16.3;;;;;;;10.14;87.38;96450;;;;
2024/02/11 17:00:03;;;;;;;20;13.4;;;;;;;10.06;87.44;96461.666666667;;;;
2024/02/11 17:11:02;;;;;;;20;13.4;;;;;;;9.97;87.32;96466.666666667;;;;
2024/02/11 17:21:03;;;;;;;20;13.4;;;;;;;9.86;87.92;96473.333333333;;;;
2024/02/11 17:31:02;;;;;;;20.8;14.7;;;;;;;9.91;87.72;96480;;;;
2024/02/11 17:42:02;;;;;;;20.8;14.7;;;;;;;9.75;88.26;96478.333333333;;;;
2024/02/11 17:53:03;;;;;;;20.8;14.7;;;;;;;9.72;87.72;96483.333333333;;;;
2024/02/11 18:04:05;;;;;;;25.3;18.3;;;;;;;9.68;87.52;96490;;;;
2024/02/11 18:14:02;;;;;;;25.3;18.3;;;;;;;9.61;87.88;96493.333333333;;;;
2024/02/11 18:24:02;;;;;;;25.3;18.3;;;;;;;9.56;87.62;96498.333333333;;;;
2024/02/11 18:34:02;;;;;;;16.6;10.5;;;;;;;9.37;88.3;96503.333333333;;;;
2024/02/11 18:44:02;;;;;;;16.6;10.5;;;;;;;9.37;87.85;96498.333333333;;;;
2024/02/11 18:55:03;;;;;;;16.6;10.5;;;;;;;9.29;87.73;96506.666666667;;;;
2024/02/11 19:05:03;;;;;;;16.7;12.3;;;;;;;9.29;87.87;96511.666666667;;;;
2024/02/11 19:15:03;;;;;;;16.7;12.3;;;;;;;9.24;87.76;96513.333333333;;;;
2024/02/11 19:25:02;;;;;;;16.7;12.3;;;;;;;9.08;87.78;96520;;;;
2024/02/11 19:36:02;;;;;;;20.3;14.1;;;;;;;9.04;87.95;96518.333333333;;;;
2024/02/11 19:46:02;;;;;;;20.3;14.1;;;;;;;9.03;88.66;96523.333333333;;;;
2024/02/11 19:56:03;;;;;;;20.3;14.1;;;;;;;9.09;88.61;96533.333333333;;;;
2024/02/11 20:06:05;;;;;;;19.3;13;;;;;;;9.04;88.08;96545;;;;
2024/02/11 20:16:02;;;;;;;19.3;13;;;;;;;8.94;88.83;96561.666666667;;;;
2024/02/11 20:27:03;;;;;;;19.3;13;;;;;;;8.96;89.02;96573.333333333;;;;
2024/02/11 20:37:04;;;;;;;25.9;19;;;;;;;8.97;89.04;96581.666666667;;;;
2024/02/11 20:48:03;;;;;;;25.9;19;;;;;;;8.98;89.38;96590;;;;
2024/02/11 20:58:02;;;;;;;31.3;22.2;;;;;;;9.03;89.02;96600;;;;
2024/02/11 21:09:02;;;;;;;31.3;22.2;;;;;;;9.06;88.95;96603.333333333;;;;
2024/02/11 21:19:02;;;;;;;31.3;22.2;;;;;;;9;89.02;96605;;;;
2024/02/11 21:29:02;;;;;;;26.5;18.6;;;;;;;8.89;89.63;96615;;;;
2024/02/11 21:40:09;;;;;;;26.5;18.6;;;;;;;8.95;89.73;96625;;;;
2024/02/11 21:50:02;;;;;;;26.5;18.6;;;;;;;8.85;90.5;96631.666666667;;;;
2024/02/11 22:01:02;;;;;;;14.5;9.5;;;;;;;8.9;90.23;96641.666666667;;;;
2024/02/11 22:12:03;;;;;;;14.5;9.5;;;;;;;9.07;89.87;96653.333333333;;;;
2024/02/11 22:22:04;;;;;;;14.5;9.5;;;;;;;9.14;89.1;96666.666666667;;;;
2024/02/11 22:32:02;;;;;;;22.3;17.3;;;;;;;9.15;89.1;96678.333333333;;;;
2024/02/11 22:43:04;;;;;;;22.3;17.3;;;;;;;9.31;89.02;96685;;;;
2024/02/11 22:54:02;;;;;;;22.3;17.3;;;;;;;9.16;88.92;96705;;;;
2024/02/11 23:04:03;;;;;;;22.7;15.5;;;;;;;9.08;89.58;96716.666666667;;;;
2024/02/11 23:14:03;;;;;;;22.7;15.5;;;;;;;9.1;89.3;96718.333333333;;;;
2024/02/11 23:24:03;;;;;;;22.7;15.5;;;;;;;9.11;89.11;96728.333333333;;;;
2024/02/11 23:35:03;;;;;;;27.9;20.2;;;;;;;9.09;89.18;96733.333333333;;;;
2024/02/11 23:45:06;;;;;;;27.9;20.2;;;;;;;8.97;89.45;96741.666666667;;;;
2024/02/11 23:56:02;;;;;;;27.9;20.2;;;;;;;8.83;89.81;96755;;;;
